Time;durP1;ratioP1;P1;durP2;ratioP2;P2;SDS_P1;SDS_P2;PMS_P1;PMS_P2;Temp;Humidity;BMP_temperature;BMP_pressure;BME280_temperature;BME280_humidity;BME280_pressure;Samples;Min_cycle;Max_cycle;Signal;HPM_P1;HPM_P2
2023/08/11 00:00:21;;;;;;;8.70;2.20;;;;;;;;;;4990298;28;20129;-77
2023/08/11 00:02:50;;;;;;;7.25;1.92;;;;;;;;;;4990743;28;21202;-78
2023/08/11 00:05:20;;;;;;;3.13;1.83;;;;;;;;;;4993578;28;20042;-78
2023/08/11 00:07:50;;;;;;;3.42;1.75;;;;;;;;;;4986944;28;20046;-78
2023/08/11 00:10:18;;;;;;;4.78;2.13;;;;;;;;;;4957847;28;20081;-77
2023/08/11 00:12:45;;;;;;;4.88;2.30;;;;;;;;;;4992743;28;20404;-78
2023/08/11 00:15:12;;;;;;;4.90;1.95;;;;;;;;;;4987269;28;20053;-78
2023/08/11 00:17:39;;;;;;;4.85;2.05;;;;;;;;;;4986736;28;20112;-79
2023/08/11 00:20:07;;;;;;;4.65;2.00;;;;;;;;;;4987418;28;20102;-80
2023/08/11 00:22:37;;;;;;;9.77;2.55;;;;;;;;;;4987092;28;20150;-79
2023/08/11 00:25:04;;;;;;;7.20;2.22;;;;;;;;;;4991287;28;20053;-79
2023/08/11 00:27:31;;;;;;;2.88;2.00;;;;;;;;;;4989480;28;20141;-78
2023/08/11 00:29:58;;;;;;;3.88;2.08;;;;;;;;;;4990555;28;20553;-78
2023/08/11 00:32:25;;;;;;;3.92;2.00;;;;;;;;;;4983753;28;20072;-78
2023/08/11 00:34:52;;;;;;;5.50;1.75;;;;;;;;;;4988780;28;20052;-77
2023/08/11 00:37:18;;;;;;;4.85;1.88;;;;;;;;;;4987994;28;20380;-77
2023/08/11 00:39:45;;;;;;;5.63;2.42;;;;;;;;;;4991165;28;20039;-78
2023/08/11 00:42:12;;;;;;;3.75;2.00;;;;;;;;;;4987356;28;20045;-78
2023/08/11 00:44:39;;;;;;;2.05;1.45;;;;;;;;;;4987581;28;20049;-78
2023/08/11 00:47:06;;;;;;;5.22;1.92;;;;;;;;;;4987177;28;20050;-78
2023/08/11 00:49:34;;;;;;;4.68;1.90;;;;;;;;;;4972358;28;20066;-79
2023/08/11 00:52:03;;;;;;;3.92;2.15;;;;;;;;;;4984588;28;20134;-78
2023/08/11 00:54:32;;;;;;;6.57;2.03;;;;;;;;;;4989840;28;20046;-78
2023/08/11 00:56:59;;;;;;;8.18;1.88;;;;;;;;;;4986765;28;20077;-77
2023/08/11 00:59:26;;;;;;;8.73;2.15;;;;;;;;;;4989042;28;20050;-78
2023/08/11 01:01:52;;;;;;;5.47;2.10;;;;;;;;;;4989560;28;20384;-79
2023/08/11 01:04:19;;;;;;;5.63;2.13;;;;;;;;;;4984336;28;20050;-78
2023/08/11 01:06:48;;;;;;;6.53;2.10;;;;;;;;;;4972696;28;20050;-77
2023/08/11 01:09:18;;;;;;;4.00;2.03;;;;;;;;;;4990871;28;20046;-78
2023/08/11 01:11:52;;;;;;;5.13;2.22;;;;;;;;;;4990350;28;20050;-79
2023/08/11 01:14:24;;;;;;;8.63;2.15;;;;;;;;;;4998488;28;20053;-78
2023/08/11 01:16:51;;;;;;;3.58;2.08;;;;;;;;;;4990146;28;20053;-79
2023/08/11 01:19:31;;;;;;;5.07;2.38;;;;;;;;;;4990520;28;20050;-80
2023/08/11 01:21:59;;;;;;;7.55;2.30;;;;;;;;;;4991963;28;20046;-79
2023/08/11 01:24:26;;;;;;;5.80;2.10;;;;;;;;;;4995402;28;20653;-79
2023/08/11 01:26:57;;;;;;;5.18;2.42;;;;;;;;;;4992618;28;20455;-79
2023/08/11 01:29:24;;;;;;;5.07;2.55;;;;;;;;;;4995094;28;20150;-79
2023/08/11 01:31:51;;;;;;;3.35;2.15;;;;;;;;;;4994778;28;20038;-79
2023/08/11 01:34:17;;;;;;;5.53;2.20;;;;;;;;;;4994517;28;20050;-78
2023/08/11 01:36:44;;;;;;;5.40;2.10;;;;;;;;;;4993913;28;20179;-79
2023/08/11 01:39:11;;;;;;;4.75;2.33;;;;;;;;;;4993967;28;20057;-79
2023/08/11 01:41:38;;;;;;;3.47;2.15;;;;;;;;;;4993168;28;20057;-78
2023/08/11 01:44:05;;;;;;;7.93;2.85;;;;;;;;;;4963578;28;20047;-79
2023/08/11 01:46:33;;;;;;;5.60;1.90;;;;;;;;;;4994303;28;20073;-78
2023/08/11 01:49:01;;;;;;;3.80;2.38;;;;;;;;;;4993979;28;21881;-79
2023/08/11 01:51:28;;;;;;;4.72;2.35;;;;;;;;;;4995748;28;20042;-79
2023/08/11 01:53:55;;;;;;;5.22;2.22;;;;;;;;;;4997434;28;20042;-79
2023/08/11 01:56:22;;;;;;;5.07;2.25;;;;;;;;;;4977841;28;20479;-79
2023/08/11 01:58:49;;;;;;;5.68;2.38;;;;;;;;;;4996695;28;20053;-78
2023/08/11 02:01:16;;;;;;;2.97;2.10;;;;;;;;;;4997041;28;20050;-78
2023/08/11 02:03:43;;;;;;;7.53;2.38;;;;;;;;;;4995769;28;20085;-78
2023/08/11 02:06:10;;;;;;;5.68;2.20;;;;;;;;;;4990973;28;20054;-78
2023/08/11 02:08:37;;;;;;;7.20;2.30;;;;;;;;;;4993896;28;20137;-78
2023/08/11 02:11:03;;;;;;;5.55;2.42;;;;;;;;;;4991374;28;20070;-79
2023/08/11 02:13:30;;;;;;;4.80;2.28;;;;;;;;;;4972728;28;20049;-79
2023/08/11 02:16:00;;;;;;;4.07;2.10;;;;;;;;;;4990970;28;20042;-79
2023/08/11 02:18:27;;;;;;;4.10;2.22;;;;;;;;;;4993034;28;20058;-79
2023/08/11 02:20:54;;;;;;;4.20;2.15;;;;;;;;;;4995886;28;20081;-79
2023/08/11 02:23:22;;;;;;;3.58;1.83;;;;;;;;;;4995218;28;20253;-79
2023/08/11 02:25:49;;;;;;;4.13;2.53;;;;;;;;;;4992903;28;20116;-78
2023/08/11 02:28:16;;;;;;;3.70;2.47;;;;;;;;;;4989537;28;20073;-79
2023/08/11 02:30:44;;;;;;;3.95;2.42;;;;;;;;;;4988295;28;20054;-79
2023/08/11 02:33:12;;;;;;;6.05;2.40;;;;;;;;;;4993178;28;20042;-79
2023/08/11 02:35:39;;;;;;;4.43;2.35;;;;;;;;;;4998414;28;20046;-79
2023/08/11 02:38:06;;;;;;;5.97;2.25;;;;;;;;;;4991270;28;20054;-79
2023/08/11 02:40:35;;;;;;;6.03;2.30;;;;;;;;;;4992565;28;20482;-78
2023/08/11 02:43:02;;;;;;;6.78;2.25;;;;;;;;;;4982979;28;20051;-78
2023/08/11 02:45:28;;;;;;;8.43;2.45;;;;;;;;;;4985002;28;20081;-78
2023/08/11 02:47:56;;;;;;;5.00;2.50;;;;;;;;;;4992553;28;20046;-80
2023/08/11 02:50:23;;;;;;;3.95;2.20;;;;;;;;;;4992501;28;20062;-79
2023/08/11 02:52:49;;;;;;;5.53;2.25;;;;;;;;;;4992795;28;20046;-79
2023/08/11 02:55:16;;;;;;;4.97;2.35;;;;;;;;;;4991886;28;20042;-78
2023/08/11 02:57:43;;;;;;;7.47;2.50;;;;;;;;;;4990935;28;20675;-78
2023/08/11 03:00:13;;;;;;;5.63;2.22;;;;;;;;;;4993883;28;20467;-78
2023/08/11 03:02:46;;;;;;;6.50;2.72;;;;;;;;;;4992175;28;21778;-78
2023/08/11 03:05:14;;;;;;;6.55;2.40;;;;;;;;;;4971728;28;20590;-78
2023/08/11 03:07:43;;;;;;;3.05;2.28;;;;;;;;;;4975429;28;20055;-79
2023/08/11 03:10:10;;;;;;;6.28;2.78;;;;;;;;;;4967899;28;20058;-80
2023/08/11 03:12:39;;;;;;;5.03;2.28;;;;;;;;;;4989763;28;20130;-80
2023/08/11 03:15:10;;;;;;;5.43;2.65;;;;;;;;;;4974867;28;20038;-79
2023/08/11 03:17:37;;;;;;;6.07;2.65;;;;;;;;;;4990191;28;20522;-80
2023/08/11 03:20:10;;;;;;;6.55;2.90;;;;;;;;;;4992247;28;20236;-78
2023/08/11 03:22:38;;;;;;;4.75;2.97;;;;;;;;;;4991607;28;20043;-80
2023/08/11 03:25:07;;;;;;;8.80;3.50;;;;;;;;;;4992834;28;20050;-79
2023/08/11 03:27:34;;;;;;;4.55;2.70;;;;;;;;;;4994137;28;20053;-79
2023/08/11 03:30:02;;;;;;;6.30;3.10;;;;;;;;;;4986096;28;20037;-78
2023/08/11 03:32:30;;;;;;;6.13;3.30;;;;;;;;;;5011426;28;20038;-79
2023/08/11 03:34:56;;;;;;;7.03;3.38;;;;;;;;;;5011681;28;20027;-78
2023/08/11 03:37:25;;;;;;;8.63;3.20;;;;;;;;;;5002969;28;20043;-79
2023/08/11 03:39:52;;;;;;;5.88;3.20;;;;;;;;;;5011999;28;20050;-79
2023/08/11 03:42:19;;;;;;;5.88;3.17;;;;;;;;;;4995058;28;20060;-77
2023/08/11 03:44:46;;;;;;;4.50;3.03;;;;;;;;;;5012059;28;20049;-78
2023/08/11 03:47:14;;;;;;;5.78;3.30;;;;;;;;;;5002955;28;21422;-77
2023/08/11 03:49:41;;;;;;;6.05;3.20;;;;;;;;;;4990298;28;20042;-77
2023/08/11 03:52:08;;;;;;;7.28;3.25;;;;;;;;;;4996743;28;20131;-78
2023/08/11 03:54:35;;;;;;;9.30;4.05;;;;;;;;;;4990258;28;20494;-81
2023/08/11 03:57:14;;;;;;;5.75;3.53;;;;;;;;;;4987763;28;21236;-80
2023/08/11 03:59:44;;;;;;;7.15;3.47;;;;;;;;;;4973658;28;20695;-79
2023/08/11 04:02:13;;;;;;;6.68;3.50;;;;;;;;;;4987655;28;20606;-79
2023/08/11 04:04:39;;;;;;;11.00;3.40;;;;;;;;;;4974546;28;20062;-78
2023/08/11 04:07:06;;;;;;;10.07;3.90;;;;;;;;;;4992342;28;20062;-79
2023/08/11 04:09:34;;;;;;;7.47;3.80;;;;;;;;;;4974995;28;20058;-79
2023/08/11 04:12:01;;;;;;;7.45;3.85;;;;;;;;;;4972927;28;20054;-79
2023/08/11 04:14:27;;;;;;;6.40;3.30;;;;;;;;;;4993371;28;20471;-80
2023/08/11 04:16:54;;;;;;;8.57;3.83;;;;;;;;;;4994616;28;20050;-80
2023/08/11 04:19:21;;;;;;;8.45;3.80;;;;;;;;;;4996062;28;20050;-79
2023/08/11 04:21:48;;;;;;;5.50;3.38;;;;;;;;;;4995821;28;20050;-80
2023/08/11 04:24:15;;;;;;;11.90;4.30;;;;;;;;;;4985966;28;20042;-78
2023/08/11 04:26:42;;;;;;;8.80;3.75;;;;;;;;;;4991906;28;20054;-80
2023/08/11 04:29:09;;;;;;;6.85;3.45;;;;;;;;;;4996188;28;20058;-79
2023/08/11 04:31:35;;;;;;;7.80;3.97;;;;;;;;;;4993238;28;20049;-78
2023/08/11 04:34:05;;;;;;;9.10;4.53;;;;;;;;;;4990902;28;20046;-78
2023/08/11 04:36:32;;;;;;;5.43;3.63;;;;;;;;;;4991581;28;20073;-78
2023/08/11 04:38:59;;;;;;;8.55;4.15;;;;;;;;;;4994596;28;20038;-78
2023/08/11 04:41:26;;;;;;;12.93;4.18;;;;;;;;;;4976173;28;20058;-79
2023/08/11 04:43:53;;;;;;;6.18;3.80;;;;;;;;;;4981220;28;20587;-80
2023/08/11 04:46:20;;;;;;;5.72;3.80;;;;;;;;;;4992333;28;20050;-78
2023/08/11 04:48:46;;;;;;;6.70;3.90;;;;;;;;;;4994636;28;20062;-78
2023/08/11 04:51:13;;;;;;;8.18;3.88;;;;;;;;;;4994393;28;20503;-78
2023/08/11 04:53:40;;;;;;;5.80;3.20;;;;;;;;;;4973774;28;20042;-78
2023/08/11 04:56:08;;;;;;;6.95;4.10;;;;;;;;;;4992928;28;20073;-78
2023/08/11 04:58:36;;;;;;;7.97;3.83;;;;;;;;;;4998217;28;20128;-79
2023/08/11 05:01:04;;;;;;;8.05;3.55;;;;;;;;;;4979701;28;20130;-78
2023/08/11 05:03:31;;;;;;;8.68;3.83;;;;;;;;;;4996621;28;20058;-78
2023/08/11 05:06:00;;;;;;;9.50;3.80;;;;;;;;;;4979909;28;20045;-79
2023/08/11 05:08:31;;;;;;;6.15;3.50;;;;;;;;;;4998523;28;20274;-78
2023/08/11 05:10:58;;;;;;;10.77;3.58;;;;;;;;;;4996940;28;20065;-79
2023/08/11 05:13:28;;;;;;;9.55;4.03;;;;;;;;;;4997137;28;20128;-79
2023/08/11 05:15:54;;;;;;;8.07;4.07;;;;;;;;;;4995438;28;20081;-78
2023/08/11 05:18:21;;;;;;;4.90;3.22;;;;;;;;;;4996541;28;20038;-78
2023/08/11 05:20:48;;;;;;;7.93;3.40;;;;;;;;;;4996249;28;20459;-78
2023/08/11 05:23:15;;;;;;;13.25;3.90;;;;;;;;;;4995950;28;20474;-79
2023/08/11 05:25:42;;;;;;;7.20;3.75;;;;;;;;;;4996238;28;20129;-79
2023/08/11 05:28:12;;;;;;;6.95;4.00;;;;;;;;;;4997397;28;20038;-78
2023/08/11 05:30:39;;;;;;;8.93;3.80;;;;;;;;;;4996403;28;20054;-79
2023/08/11 05:33:05;;;;;;;8.35;3.55;;;;;;;;;;4995830;28;20047;-80
2023/08/11 05:35:32;;;;;;;8.15;4.47;;;;;;;;;;4997207;28;20042;-79
2023/08/11 05:38:01;;;;;;;7.22;3.72;;;;;;;;;;4995650;28;20053;-78
2023/08/11 05:40:29;;;;;;;8.32;4.07;;;;;;;;;;4997293;28;20105;-78
2023/08/11 05:42:55;;;;;;;8.02;5.05;;;;;;;;;;4990813;28;20150;-80
2023/08/11 05:45:22;;;;;;;7.68;4.90;;;;;;;;;;4987499;28;20042;-79
2023/08/11 05:47:49;;;;;;;10.13;4.40;;;;;;;;;;4996902;28;20046;-79
2023/08/11 05:50:16;;;;;;;9.98;4.63;;;;;;;;;;4991011;28;20046;-79
2023/08/11 05:52:42;;;;;;;10.60;4.85;;;;;;;;;;4994594;28;20070;-78
2023/08/11 05:55:09;;;;;;;10.82;4.78;;;;;;;;;;4992465;28;20046;-78
2023/08/11 05:57:36;;;;;;;10.82;4.53;;;;;;;;;;4994399;28;20120;-78
2023/08/11 06:00:03;;;;;;;8.02;4.82;;;;;;;;;;4997279;28;20110;-79
2023/08/11 06:02:38;;;;;;;7.47;4.88;;;;;;;;;;4993655;28;20125;-78
2023/08/11 06:05:05;;;;;;;13.98;4.85;;;;;;;;;;4989031;28;20050;-79
2023/08/11 06:07:32;;;;;;;9.23;4.72;;;;;;;;;;4990637;28;20984;-79
2023/08/11 06:09:59;;;;;;;8.15;4.47;;;;;;;;;;4995561;28;20050;-79
2023/08/11 06:12:28;;;;;;;11.15;4.35;;;;;;;;;;4976627;28;20038;-80
2023/08/11 06:14:55;;;;;;;7.32;4.40;;;;;;;;;;4992951;28;20061;-78
2023/08/11 06:17:21;;;;;;;7.75;4.20;;;;;;;;;;4991792;28;20058;-78
2023/08/11 06:19:48;;;;;;;7.47;3.90;;;;;;;;;;4993738;28;20608;-79
2023/08/11 06:22:16;;;;;;;10.88;4.47;;;;;;;;;;4992519;28;20058;-80
2023/08/11 06:24:43;;;;;;;13.68;4.40;;;;;;;;;;4995467;28;20470;-79
2023/08/11 06:27:10;;;;;;;6.00;3.67;;;;;;;;;;4993412;28;20121;-80
2023/08/11 06:29:37;;;;;;;8.15;3.80;;;;;;;;;;4995159;28;20047;-80
2023/08/11 06:32:04;;;;;;;6.32;3.72;;;;;;;;;;4994484;28;20093;-79
2023/08/11 06:34:30;;;;;;;6.10;3.30;;;;;;;;;;4992408;28;20416;-77
2023/08/11 06:36:57;;;;;;;5.65;3.58;;;;;;;;;;4990974;28;20384;-78
2023/08/11 06:39:24;;;;;;;7.72;3.25;;;;;;;;;;4994637;28;20050;-78
2023/08/11 06:41:51;;;;;;;7.07;3.53;;;;;;;;;;4992072;28;20050;-77
2023/08/11 06:44:37;;;;;;;10.73;3.38;;;;;;;;;;4973364;28;20042;-77
2023/08/11 06:47:04;;;;;;;7.72;3.63;;;;;;;;;;4988322;28;20069;-79
2023/08/11 06:49:32;;;;;;;10.30;3.10;;;;;;;;;;4993024;28;21067;-78
2023/08/11 06:51:58;;;;;;;11.57;3.30;;;;;;;;;;4991673;28;20043;-78
2023/08/11 06:54:26;;;;;;;5.68;3.60;;;;;;;;;;4992920;28;20085;-78
2023/08/11 06:56:53;;;;;;;6.55;3.05;;;;;;;;;;4990326;28;20523;-78
2023/08/11 06:59:19;;;;;;;5.65;3.13;;;;;;;;;;4992858;28;20503;-79
2023/08/11 07:01:46;;;;;;;8.43;2.90;;;;;;;;;;4992174;28;20066;-79
2023/08/11 07:04:13;;;;;;;5.88;2.60;;;;;;;;;;4991759;28;20045;-77
2023/08/11 07:06:39;;;;;;;14.98;2.92;;;;;;;;;;4990632;28;20072;-77
2023/08/11 07:09:06;;;;;;;5.85;2.90;;;;;;;;;;4990071;28;20039;-76
2023/08/11 07:11:33;;;;;;;8.02;2.70;;;;;;;;;;4987382;28;20038;-79
2023/08/11 07:14:00;;;;;;;11.50;2.92;;;;;;;;;;4992017;28;20059;-78
2023/08/11 07:16:26;;;;;;;11.43;2.58;;;;;;;;;;4988714;28;20120;-79
2023/08/11 07:18:53;;;;;;;5.30;2.90;;;;;;;;;;4992696;28;20053;-78
2023/08/11 07:21:20;;;;;;;9.10;2.95;;;;;;;;;;4992345;28;20447;-79
2023/08/11 07:23:47;;;;;;;5.55;2.60;;;;;;;;;;4992069;28;20066;-79
2023/08/11 07:26:13;;;;;;;6.07;3.58;;;;;;;;;;4990141;28;20857;-78
2023/08/11 07:28:40;;;;;;;4.72;2.13;;;;;;;;;;4991714;28;20097;-76
2023/08/11 07:31:07;;;;;;;5.20;2.42;;;;;;;;;;4989573;28;21318;-78
2023/08/11 07:33:34;;;;;;;5.30;2.55;;;;;;;;;;4990518;28;20097;-78
2023/08/11 07:36:00;;;;;;;5.35;2.45;;;;;;;;;;4988639;28;20046;-77
2023/08/11 07:38:27;;;;;;;3.92;2.10;;;;;;;;;;4990956;28;20061;-79
2023/08/11 07:40:54;;;;;;;4.32;1.92;;;;;;;;;;4991237;28;20042;-78
2023/08/11 07:43:20;;;;;;;4.75;1.95;;;;;;;;;;4980534;28;20054;-77
2023/08/11 07:45:47;;;;;;;6.13;1.77;;;;;;;;;;4978432;28;20046;-79
2023/08/11 07:48:15;;;;;;;7.03;1.73;;;;;;;;;;4989263;28;20046;-79
2023/08/11 07:50:43;;;;;;;2.95;1.67;;;;;;;;;;4983443;28;20149;-79
2023/08/11 07:53:09;;;;;;;6.82;2.00;;;;;;;;;;4979503;28;20051;-80
2023/08/11 07:55:36;;;;;;;5.10;1.77;;;;;;;;;;4978083;28;20747;-78
2023/08/11 07:58:03;;;;;;;3.47;1.95;;;;;;;;;;4980861;28;20128;-78
2023/08/11 08:00:30;;;;;;;7.55;2.10;;;;;;;;;;4990563;28;20054;-79
2023/08/11 08:02:57;;;;;;;5.90;2.00;;;;;;;;;;4990044;28;20415;-80
2023/08/11 08:05:23;;;;;;;3.00;1.50;;;;;;;;;;4990154;28;20050;-80
2023/08/11 08:07:50;;;;;;;6.68;1.55;;;;;;;;;;4990064;28;20042;-79
2023/08/11 08:10:20;;;;;;;6.78;1.50;;;;;;;;;;4981527;28;20539;-79
2023/08/11 08:12:46;;;;;;;7.80;1.83;;;;;;;;;;4989194;28;20136;-79
2023/08/11 08:15:14;;;;;;;6.05;1.60;;;;;;;;;;4988593;28;20042;-80
2023/08/11 08:17:41;;;;;;;7.15;1.98;;;;;;;;;;4988619;28;20526;-80
2023/08/11 08:20:08;;;;;;;4.72;1.55;;;;;;;;;;4990357;28;20069;-80
2023/08/11 08:22:36;;;;;;;4.85;1.33;;;;;;;;;;4989896;28;20050;-80
2023/08/11 08:25:06;;;;;;;3.75;1.60;;;;;;;;;;4989456;28;20046;-79
2023/08/11 08:27:34;;;;;;;5.20;1.20;;;;;;;;;;4989318;28;20046;-80
2023/08/11 08:30:01;;;;;;;2.65;1.23;;;;;;;;;;4989256;28;20070;-79
2023/08/11 08:32:29;;;;;;;3.97;1.48;;;;;;;;;;4986715;28;20058;-80
2023/08/11 08:34:56;;;;;;;3.25;1.27;;;;;;;;;;4972818;28;20046;-80
2023/08/11 08:37:24;;;;;;;3.78;1.17;;;;;;;;;;4988948;28;20081;-80
2023/08/11 08:39:52;;;;;;;4.57;1.23;;;;;;;;;;4990771;28;20054;-77
2023/08/11 08:42:19;;;;;;;2.65;1.23;;;;;;;;;;4985820;28;20050;-79
2023/08/11 08:44:47;;;;;;;5.32;1.20;;;;;;;;;;4970850;28;20065;-80
2023/08/11 08:47:15;;;;;;;3.55;1.38;;;;;;;;;;4987772;28;20042;-81
2023/08/11 08:49:43;;;;;;;2.30;1.23;;;;;;;;;;4990864;28;20042;-80
2023/08/11 08:52:10;;;;;;;2.92;1.33;;;;;;;;;;4989319;28;20050;-79
2023/08/11 08:54:37;;;;;;;3.13;1.17;;;;;;;;;;4993566;28;20054;-78
2023/08/11 08:57:04;;;;;;;5.25;1.30;;;;;;;;;;4992051;28;20042;-79
2023/08/11 08:59:31;;;;;;;3.08;1.23;;;;;;;;;;4999540;28;20054;-79
2023/08/11 09:01:58;;;;;;;2.28;0.90;;;;;;;;;;4997474;28;20053;-79
2023/08/11 09:04:28;;;;;;;6.10;1.13;;;;;;;;;;4995494;28;20087;-80
2023/08/11 09:06:55;;;;;;;2.63;1.10;;;;;;;;;;4994874;28;20129;-80
2023/08/11 09:09:23;;;;;;;2.95;1.08;;;;;;;;;;4997240;28;20060;-79
2023/08/11 09:11:50;;;;;;;2.63;1.45;;;;;;;;;;4998398;28;20150;-80
2023/08/11 09:14:19;;;;;;;2.47;1.08;;;;;;;;;;4997419;28;20066;-78
2023/08/11 09:16:46;;;;;;;1.70;0.93;;;;;;;;;;4973094;28;20050;-78
2023/08/11 09:19:13;;;;;;;5.22;1.17;;;;;;;;;;4988762;28;20062;-78
2023/08/11 09:21:41;;;;;;;4.93;1.20;;;;;;;;;;4991386;28;20073;-80
2023/08/11 09:24:10;;;;;;;2.88;1.48;;;;;;;;;;4992107;28;20133;-79
2023/08/11 09:26:38;;;;;;;4.72;1.60;;;;;;;;;;4991196;28;20794;-80
2023/08/11 09:29:05;;;;;;;3.78;1.30;;;;;;;;;;4993829;28;20053;-79
2023/08/11 09:31:31;;;;;;;4.35;1.50;;;;;;;;;;4991873;28;20051;-79
2023/08/11 09:34:09;;;;;;;2.80;1.25;;;;;;;;;;4991392;28;20057;-79
2023/08/11 09:36:36;;;;;;;3.80;1.40;;;;;;;;;;4991843;28;20054;-79
2023/08/11 09:39:05;;;;;;;4.60;1.20;;;;;;;;;;4992358;28;20486;-79
2023/08/11 09:41:36;;;;;;;3.95;1.20;;;;;;;;;;4988889;28;20046;-79
2023/08/11 09:44:03;;;;;;;3.63;1.10;;;;;;;;;;4990691;28;20093;-78
2023/08/11 09:46:30;;;;;;;6.53;1.50;;;;;;;;;;4986918;28;20054;-80
2023/08/11 09:48:57;;;;;;;3.55;1.50;;;;;;;;;;4993548;28;20512;-79
2023/08/11 09:51:24;;;;;;;1.67;1.00;;;;;;;;;;4993498;28;20050;-79
2023/08/11 09:53:51;;;;;;;2.88;1.30;;;;;;;;;;4976391;28;20128;-79
2023/08/11 09:56:19;;;;;;;2.33;1.25;;;;;;;;;;4984048;28;20058;-78
2023/08/11 09:58:45;;;;;;;2.58;1.42;;;;;;;;;;4994195;28;20081;-80
2023/08/11 10:01:12;;;;;;;2.63;1.10;;;;;;;;;;4985933;28;20058;-79
2023/08/11 10:03:47;;;;;;;4.83;1.33;;;;;;;;;;4991157;28;20054;-78
2023/08/11 10:06:19;;;;;;;2.35;1.10;;;;;;;;;;4992958;28;20309;-78
2023/08/11 10:08:47;;;;;;;7.72;1.35;;;;;;;;;;4996566;28;20050;-79
2023/08/11 10:11:14;;;;;;;3.38;1.15;;;;;;;;;;4994194;28;20084;-79
2023/08/11 10:13:41;;;;;;;1.50;1.10;;;;;;;;;;4997260;28;20100;-78
2023/08/11 10:16:08;;;;;;;3.72;1.27;;;;;;;;;;4996581;28;20482;-78
2023/08/11 10:18:35;;;;;;;5.88;1.20;;;;;;;;;;4995129;28;20067;-79
2023/08/11 10:21:03;;;;;;;2.70;1.27;;;;;;;;;;4989888;28;20069;-78
2023/08/11 10:23:29;;;;;;;3.53;1.15;;;;;;;;;;4990217;28;20050;-78
2023/08/11 10:25:56;;;;;;;3.50;1.55;;;;;;;;;;4989968;28;20069;-77
2023/08/11 10:28:23;;;;;;;2.50;1.10;;;;;;;;;;4990726;28;20073;-76
2023/08/11 10:30:57;;;;;;;2.95;1.58;;;;;;;;;;4973620;28;20477;-79
2023/08/11 10:33:23;;;;;;;3.60;1.30;;;;;;;;;;4989533;28;20050;-80
2023/08/11 10:35:53;;;;;;;2.47;1.30;;;;;;;;;;4989053;28;20054;-76
2023/08/11 10:38:24;;;;;;;2.90;1.30;;;;;;;;;;4992096;28;20050;-78
2023/08/11 10:40:56;;;;;;;5.50;1.40;;;;;;;;;;4988624;28;20510;-75
2023/08/11 10:43:29;;;;;;;2.60;1.20;;;;;;;;;;4975102;28;20051;-77
2023/08/11 10:45:56;;;;;;;3.13;1.10;;;;;;;;;;4979655;28;20046;-78
2023/08/11 10:48:23;;;;;;;2.28;1.15;;;;;;;;;;4992387;28;20046;-78
2023/08/11 10:50:50;;;;;;;4.55;1.30;;;;;;;;;;4991593;28;20486;-79
2023/08/11 10:53:17;;;;;;;4.22;1.13;;;;;;;;;;4991222;28;20042;-77
2023/08/11 10:55:52;;;;;;;3.85;1.65;;;;;;;;;;4990421;28;20130;-78
2023/08/11 10:58:20;;;;;;;1.70;1.30;;;;;;;;;;4992637;28;20050;-79
2023/08/11 11:00:47;;;;;;;2.83;1.30;;;;;;;;;;4992322;28;20065;-77
2023/08/11 11:03:14;;;;;;;2.45;1.40;;;;;;;;;;4990698;28;20050;-78
2023/08/11 11:05:42;;;;;;;4.25;1.10;;;;;;;;;;4992395;28;20046;-80
2023/08/11 11:08:09;;;;;;;2.88;1.20;;;;;;;;;;4991049;28;20050;-77
2023/08/11 11:10:35;;;;;;;3.17;1.20;;;;;;;;;;4975125;28;20491;-78
2023/08/11 11:13:16;;;;;;;3.03;1.25;;;;;;;;;;4989198;28;20046;-79
2023/08/11 11:15:42;;;;;;;3.67;1.50;;;;;;;;;;4989233;28;20122;-77
2023/08/11 11:18:09;;;;;;;4.80;1.40;;;;;;;;;;4991886;28;20042;-79
2023/08/11 11:20:37;;;;;;;3.45;1.40;;;;;;;;;;4989831;28;20057;-79
2023/08/11 11:23:05;;;;;;;7.82;1.23;;;;;;;;;;4974782;28;20046;-78
2023/08/11 11:25:32;;;;;;;3.08;1.30;;;;;;;;;;4988444;28;20149;-80
2023/08/11 11:27:58;;;;;;;4.68;1.60;;;;;;;;;;4988947;28;20092;-80
2023/08/11 11:30:25;;;;;;;2.50;1.23;;;;;;;;;;4991632;28;20050;-78
2023/08/11 11:32:52;;;;;;;2.70;1.20;;;;;;;;;;4990188;28;20049;-77
2023/08/11 11:35:19;;;;;;;2.67;1.30;;;;;;;;;;4978961;28;20050;-77
2023/08/11 11:37:46;;;;;;;1.70;1.10;;;;;;;;;;4987371;28;20042;-76
2023/08/11 11:40:13;;;;;;;4.68;1.40;;;;;;;;;;4991523;28;20658;-79
2023/08/11 11:42:41;;;;;;;6.68;1.23;;;;;;;;;;4990956;28;20038;-78
2023/08/11 11:45:09;;;;;;;2.92;1.27;;;;;;;;;;4981624;28;20045;-78
2023/08/11 11:47:36;;;;;;;2.55;1.33;;;;;;;;;;4974593;28;20050;-78
2023/08/11 11:50:07;;;;;;;3.42;1.23;;;;;;;;;;4992147;28;20034;-79
2023/08/11 11:52:36;;;;;;;1.65;1.10;;;;;;;;;;4989935;28;20042;-78
2023/08/11 11:55:05;;;;;;;2.95;1.45;;;;;;;;;;4990440;28;20614;-78
2023/08/11 11:57:33;;;;;;;2.53;1.20;;;;;;;;;;4989335;28;20042;-79
2023/08/11 12:00:02;;;;;;;4.53;1.40;;;;;;;;;;4990062;28;20301;-78
2023/08/11 12:02:38;;;;;;;3.72;1.30;;;;;;;;;;4990559;28;20042;-79
2023/08/11 12:05:06;;;;;;;2.95;1.23;;;;;;;;;;4991500;28;20956;-79
2023/08/11 12:07:34;;;;;;;4.50;1.50;;;;;;;;;;4991532;28;20109;-78
2023/08/11 12:10:00;;;;;;;3.45;1.35;;;;;;;;;;4992339;28;20053;-79
2023/08/11 12:12:28;;;;;;;2.63;1.50;;;;;;;;;;4989867;28;20185;-79
2023/08/11 12:15:01;;;;;;;3.05;1.20;;;;;;;;;;4989975;28;20069;-79
2023/08/11 12:17:32;;;;;;;3.85;1.55;;;;;;;;;;4990365;28;20050;-79
2023/08/11 12:20:08;;;;;;;3.35;1.27;;;;;;;;;;4991131;28;20046;-77
2023/08/11 12:22:35;;;;;;;3.45;1.65;;;;;;;;;;4988655;28;21607;-77
2023/08/11 12:25:02;;;;;;;5.55;1.23;;;;;;;;;;4987283;28;20442;-77
2023/08/11 12:27:28;;;;;;;10.20;1.50;;;;;;;;;;4988108;28;20066;-78
2023/08/11 12:29:55;;;;;;;2.45;1.33;;;;;;;;;;4990626;28;20084;-79
2023/08/11 12:32:21;;;;;;;2.83;1.35;;;;;;;;;;4988847;28;20046;-79
2023/08/11 12:34:51;;;;;;;2.80;1.27;;;;;;;;;;4989463;28;20133;-79
2023/08/11 12:37:20;;;;;;;4.97;1.45;;;;;;;;;;4989053;28;20086;-76
2023/08/11 12:39:47;;;;;;;1.90;1.20;;;;;;;;;;4988494;28;20054;-77
2023/08/11 12:42:14;;;;;;;4.47;1.50;;;;;;;;;;4984058;28;20058;-77
2023/08/11 12:44:41;;;;;;;2.03;1.00;;;;;;;;;;4984524;28;20042;-77
2023/08/11 12:47:08;;;;;;;5.15;1.30;;;;;;;;;;4983830;28;20388;-77
2023/08/11 12:49:34;;;;;;;1.95;1.20;;;;;;;;;;4986439;28;20046;-77
2023/08/11 12:52:01;;;;;;;2.00;1.20;;;;;;;;;;4986668;28;20042;-77
2023/08/11 12:54:28;;;;;;;3.67;1.20;;;;;;;;;;4984535;28;20117;-77
2023/08/11 12:56:54;;;;;;;3.85;1.23;;;;;;;;;;4975814;28;20057;-76
2023/08/11 12:59:24;;;;;;;2.70;1.13;;;;;;;;;;4987254;28;20069;-77
2023/08/11 13:01:51;;;;;;;2.45;1.13;;;;;;;;;;4985604;28;20042;-77
2023/08/11 13:04:18;;;;;;;2.60;1.30;;;;;;;;;;4987484;28;20077;-78
2023/08/11 13:06:44;;;;;;;4.43;1.35;;;;;;;;;;4987141;28;20047;-79
2023/08/11 13:09:11;;;;;;;2.42;1.10;;;;;;;;;;4986580;28;20038;-78
2023/08/11 13:11:38;;;;;;;2.20;1.13;;;;;;;;;;4983490;28;20074;-79
2023/08/11 13:14:05;;;;;;;2.50;1.10;;;;;;;;;;4967321;28;20070;-79
2023/08/11 13:16:34;;;;;;;1.65;0.82;;;;;;;;;;4967386;28;20074;-79
2023/08/11 13:19:01;;;;;;;2.40;1.15;;;;;;;;;;4990472;28;20054;-79
2023/08/11 13:21:27;;;;;;;1.45;1.00;;;;;;;;;;4993037;28;20078;-78
2023/08/11 13:23:54;;;;;;;3.13;1.40;;;;;;;;;;4993559;28;20078;-78
2023/08/11 13:26:21;;;;;;;2.33;1.00;;;;;;;;;;4990691;28;20046;-79
2023/08/11 13:28:49;;;;;;;1.50;1.10;;;;;;;;;;4986034;28;20068;-79
2023/08/11 13:31:16;;;;;;;1.75;1.05;;;;;;;;;;4990612;28;20511;-79
2023/08/11 13:33:43;;;;;;;4.53;1.27;;;;;;;;;;4993707;28;20057;-79
2023/08/11 13:36:10;;;;;;;2.20;1.20;;;;;;;;;;4994721;28;20042;-79
2023/08/11 13:38:36;;;;;;;2.83;1.30;;;;;;;;;;4991817;28;20054;-78
2023/08/11 13:41:03;;;;;;;2.72;0.98;;;;;;;;;;4986909;28;20050;-79
2023/08/11 13:43:33;;;;;;;2.15;1.10;;;;;;;;;;4984165;28;20057;-79
2023/08/11 13:46:00;;;;;;;2.35;1.17;;;;;;;;;;4982425;28;20042;-79
2023/08/11 13:48:27;;;;;;;4.20;1.25;;;;;;;;;;4994799;28;20046;-79
2023/08/11 13:50:56;;;;;;;3.00;1.20;;;;;;;;;;4997377;28;20495;-79
2023/08/11 13:53:23;;;;;;;1.98;1.10;;;;;;;;;;4995057;28;20100;-78
2023/08/11 13:55:50;;;;;;;3.45;1.10;;;;;;;;;;4989802;28;20939;-78
2023/08/11 13:58:16;;;;;;;2.17;1.33;;;;;;;;;;4991609;28;20098;-79
2023/08/11 14:00:43;;;;;;;1.52;1.08;;;;;;;;;;4990661;28;20545;-78
2023/08/11 14:03:10;;;;;;;1.80;1.10;;;;;;;;;;4992059;28;20038;-79
2023/08/11 14:05:36;;;;;;;2.63;1.20;;;;;;;;;;4992540;28;20042;-77
2023/08/11 14:08:03;;;;;;;3.00;1.33;;;;;;;;;;4994843;28;20030;-78
2023/08/11 14:10:30;;;;;;;3.38;1.10;;;;;;;;;;5003661;28;20094;-78
2023/08/11 14:12:56;;;;;;;2.30;1.20;;;;;;;;;;4975417;28;20038;-77
2023/08/11 14:15:23;;;;;;;2.33;1.33;;;;;;;;;;4990816;28;20722;-79
2023/08/11 14:17:50;;;;;;;1.98;1.13;;;;;;;;;;4993551;28;21176;-79
2023/08/11 14:20:17;;;;;;;3.65;1.27;;;;;;;;;;4999767;28;20061;-78
2023/08/11 14:22:44;;;;;;;3.15;1.17;;;;;;;;;;5002293;28;20073;-79
2023/08/11 14:25:10;;;;;;;2.83;1.20;;;;;;;;;;5001108;28;20054;-78
2023/08/11 14:27:37;;;;;;;2.45;1.00;;;;;;;;;;5005034;28;20047;-79
2023/08/11 14:30:04;;;;;;;4.65;1.10;;;;;;;;;;5006287;28;20050;-78
2023/08/11 14:32:31;;;;;;;2.83;1.30;;;;;;;;;;4987355;28;20112;-77
2023/08/11 14:34:59;;;;;;;1.67;1.27;;;;;;;;;;4994235;28;20522;-77
2023/08/11 14:37:25;;;;;;;2.75;1.20;;;;;;;;;;4976033;28;20549;-78
2023/08/11 14:39:52;;;;;;;2.20;1.17;;;;;;;;;;4991748;28;20065;-77
2023/08/11 14:42:19;;;;;;;3.20;1.20;;;;;;;;;;4991674;28;20061;-77
2023/08/11 14:44:45;;;;;;;5.47;1.27;;;;;;;;;;4973660;28;20042;-77